sensor_id;sensor_type;location;lat;lon;timestamp;P1;durP1;ratioP1;P2;durP2;ratioP2
39822;SDS011;25499;53.958;10.970;2023-02-28T07:00:09;6.43;;;4.47;;
39822;SDS011;25499;53.958;10.970;2023-02-28T07:02:38;9.88;;;4.63;;
39822;SDS011;25499;53.958;10.970;2023-02-28T07:05:04;9.70;;;4.57;;
39822;SDS011;25499;53.958;10.970;2023-02-28T07:07:30;9.57;;;4.65;;
39822;SDS011;25499;53.958;10.970;2023-02-28T07:09:55;7.90;;;4.47;;
39822;SDS011;25499;53.958;10.970;2023-02-28T07:12:21;10.45;;;4.53;;
39822;SDS011;25499;53.958;10.970;2023-02-28T07:14:47;6.55;;;4.30;;
39822;SDS011;25499;53.958;10.970;2023-02-28T07:17:12;15.52;;;8.52;;
39822;SDS011;25499;53.958;10.970;2023-02-28T07:19:38;15.73;;;8.02;;
39822;SDS011;25499;53.958;10.970;2023-02-28T07:22:04;6.68;;;4.43;;
39822;SDS011;25499;53.958;10.970;2023-02-28T07:24:29;7.22;;;4.05;;
39822;SDS011;25499;53.958;10.970;2023-02-28T07:26:55;6.95;;;3.70;;
39822;SDS011;25499;53.958;10.970;2023-02-28T07:29:21;10.07;;;4.82;;
39822;SDS011;25499;53.958;10.970;2023-02-28T07:31:47;8.45;;;4.03;;
39822;SDS011;25499;53.958;10.970;2023-02-28T07:34:15;14.13;;;4.68;;
39822;SDS011;25499;53.958;10.970;2023-02-28T07:36:41;7.07;;;4.10;;
39822;SDS011;25499;53.958;10.970;2023-02-28T07:39:06;8.73;;;3.95;;
39822;SDS011;25499;53.958;10.970;2023-02-28T07:41:31;6.38;;;4.35;;
39822;SDS011;25499;53.958;10.970;2023-02-28T07:43:59;8.65;;;4.47;;
39822;SDS011;25499;53.958;10.970;2023-02-28T07:46:25;6.95;;;4.43;;
39822;SDS011;25499;53.958;10.970;2023-02-28T07:48:51;7.63;;;4.22;;
39822;SDS011;25499;53.958;10.970;2023-02-28T07:51:18;9.80;;;4.57;;
39822;SDS011;25499;53.958;10.970;2023-02-28T07:53:44;8.65;;;4.85;;
39822;SDS011;25499;53.958;10.970;2023-02-28T07:56:09;9.27;;;4.70;;
39822;SDS011;25499;53.958;10.970;2023-02-28T07:58:35;8.50;;;4.35;;
39822;SDS011;25499;53.958;10.970;2023-02-28T08:01:09;6.45;;;4.43;;
39822;SDS011;25499;53.958;10.970;2023-02-28T08:03:35;9.55;;;4.30;;
39822;SDS011;25499;53.958;10.970;2023-02-28T08:06:05;9.13;;;4.50;;
39822;SDS011;25499;53.958;10.970;2023-02-28T08:08:40;9.35;;;4.25;;
39822;SDS011;25499;53.958;10.970;2023-02-28T08:11:05;6.47;;;4.10;;
39822;SDS011;25499;53.958;10.970;2023-02-28T08:13:30;10.65;;;4.68;;
39822;SDS011;25499;53.958;10.970;2023-02-28T08:15:56;6.47;;;3.85;;
39822;SDS011;25499;53.958;10.970;2023-02-28T08:18:22;8.30;;;4.57;;
39822;SDS011;25499;53.958;10.970;2023-02-28T08:20:48;7.55;;;4.32;;
39822;SDS011;25499;53.958;10.970;2023-02-28T08:23:14;10.70;;;4.03;;
39822;SDS011;25499;53.958;10.970;2023-02-28T08:25:40;11.48;;;3.55;;
39822;SDS011;25499;53.958;10.970;2023-02-28T08:28:05;7.10;;;3.90;;
39822;SDS011;25499;53.958;10.970;2023-02-28T08:30:31;5.55;;;3.50;;
39822;SDS011;25499;53.958;10.970;2023-02-28T08:32:56;9.05;;;4.18;;
39822;SDS011;25499;53.958;10.970;2023-02-28T08:35:22;7.20;;;3.60;;
39822;SDS011;25499;53.958;10.970;2023-02-28T08:37:48;5.50;;;3.45;;
39822;SDS011;25499;53.958;10.970;2023-02-28T08:40:14;5.05;;;2.97;;
39822;SDS011;25499;53.958;10.970;2023-02-28T08:42:43;6.25;;;3.50;;
39822;SDS011;25499;53.958;10.970;2023-02-28T08:45:11;5.80;;;2.72;;
39822;SDS011;25499;53.958;10.970;2023-02-28T08:47:37;5.75;;;2.70;;
39822;SDS011;25499;53.958;10.970;2023-02-28T08:50:03;5.03;;;2.40;;
39822;SDS011;25499;53.958;10.970;2023-02-28T08:52:30;5.18;;;2.50;;
39822;SDS011;25499;53.958;10.970;2023-02-28T08:54:56;6.35;;;2.60;;
39822;SDS011;25499;53.958;10.970;2023-02-28T08:57:22;5.95;;;2.30;;
39822;SDS011;25499;53.958;10.970;2023-02-28T08:59:48;4.28;;;2.42;;
39822;SDS011;25499;53.958;10.970;2023-02-28T09:02:13;6.97;;;3.20;;
39822;SDS011;25499;53.958;10.970;2023-02-28T09:04:40;5.13;;;2.67;;
39822;SDS011;25499;53.958;10.970;2023-02-28T09:07:06;6.28;;;2.80;;
39822;SDS011;25499;53.958;10.970;2023-02-28T09:09:32;6.05;;;2.78;;
39822;SDS011;25499;53.958;10.970;2023-02-28T09:11:58;5.70;;;2.80;;
39822;SDS011;25499;53.958;10.970;2023-02-28T09:14:24;7.13;;;2.80;;
39822;SDS011;25499;53.958;10.970;2023-02-28T09:16:50;6.97;;;2.63;;
39822;SDS011;25499;53.958;10.970;2023-02-28T09:19:15;6.43;;;2.40;;
39822;SDS011;25499;53.958;10.970;2023-02-28T09:21:41;7.10;;;2.60;;
39822;SDS011;25499;53.958;10.970;2023-02-28T09:24:06;6.10;;;2.28;;
39822;SDS011;25499;53.958;10.970;2023-02-28T09:26:32;5.70;;;2.53;;
39822;SDS011;25499;53.958;10.970;2023-02-28T09:28:59;6.32;;;2.50;;
39822;SDS011;25499;53.958;10.970;2023-02-28T09:31:26;6.18;;;2.05;;
39822;SDS011;25499;53.958;10.970;2023-02-28T09:33:54;5.28;;;2.03;;
39822;SDS011;25499;53.958;10.970;2023-02-28T09:36:21;4.55;;;2.17;;
39822;SDS011;25499;53.958;10.970;2023-02-28T09:38:47;4.80;;;2.40;;
39822;SDS011;25499;53.958;10.970;2023-02-28T09:41:19;4.72;;;2.40;;
39822;SDS011;25499;53.958;10.970;2023-02-28T09:43:47;5.68;;;2.40;;
39822;SDS011;25499;53.958;10.970;2023-02-28T09:48:51;5.55;;;2.15;;
39822;SDS011;25499;53.958;10.970;2023-02-28T09:54:05;6.40;;;2.00;;
39822;SDS011;25499;53.958;10.970;2023-02-28T09:56:39;5.18;;;2.00;;
39822;SDS011;25499;53.958;10.970;2023-02-28T10:02:00;5.88;;;2.10;;
39822;SDS011;25499;53.958;10.970;2023-02-28T10:07:06;4.47;;;1.98;;
39822;SDS011;25499;53.958;10.970;2023-02-28T10:09:56;6.60;;;1.40;;
39822;SDS011;25499;53.958;10.970;2023-02-28T10:14:52;2.40;;;1.45;;
39822;SDS011;25499;53.958;10.970;2023-02-28T10:17:21;3.05;;;1.40;;
39822;SDS011;25499;53.958;10.970;2023-02-28T10:27:41;2.58;;;0.98;;
39822;SDS011;25499;53.958;10.970;2023-02-28T10:30:09;2.90;;;0.80;;
39822;SDS011;25499;53.958;10.970;2023-02-28T10:32:36;3.25;;;0.98;;
39822;SDS011;25499;53.958;10.970;2023-02-28T10:40:07;2.78;;;1.20;;
39822;SDS011;25499;53.958;10.970;2023-02-28T10:45:24;2.92;;;1.08;;
39822;SDS011;25499;53.958;10.970;2023-02-28T10:47:56;3.05;;;1.10;;
39822;SDS011;25499;53.958;10.970;2023-02-28T10:56:02;5.53;;;0.93;;
39822;SDS011;25499;53.958;10.970;2023-02-28T11:01:43;1.02;;;0.52;;
39822;SDS011;25499;53.958;10.970;2023-02-28T11:07:00;3.00;;;1.20;;
39822;SDS011;25499;53.958;10.970;2023-02-28T11:09:36;2.88;;;1.48;;
39822;SDS011;25499;53.958;10.970;2023-02-28T11:12:04;3.70;;;1.80;;
39822;SDS011;25499;53.958;10.970;2023-02-28T11:14:36;3.75;;;1.80;;
39822;SDS011;25499;53.958;10.970;2023-02-28T11:17:23;5.43;;;1.60;;
39822;SDS011;25499;53.958;10.970;2023-02-28T11:19:51;5.97;;;1.70;;
39822;SDS011;25499;53.958;10.970;2023-02-28T11:22:20;4.03;;;1.67;;
39822;SDS011;25499;53.958;10.970;2023-02-28T11:24:52;6.25;;;1.63;;
39822;SDS011;25499;53.958;10.970;2023-02-28T11:29:58;2.05;;;0.90;;
39822;SDS011;25499;53.958;10.970;2023-02-28T11:32:26;3.97;;;1.25;;
39822;SDS011;25499;53.958;10.970;2023-02-28T11:35:04;6.10;;;1.23;;
39822;SDS011;25499;53.958;10.970;2023-02-28T11:37:42;3.80;;;1.25;;
39822;SDS011;25499;53.958;10.970;2023-02-28T11:40:14;4.05;;;1.50;;
39822;SDS011;25499;53.958;10.970;2023-02-28T11:56:41;2.90;;;0.93;;
39822;SDS011;25499;53.958;10.970;2023-02-28T12:15:49;2.10;;;0.90;;
39822;SDS011;25499;53.958;10.970;2023-02-28T12:22:00;1.98;;;0.90;;
39822;SDS011;25499;53.958;10.970;2023-02-28T12:27:42;2.45;;;0.80;;
39822;SDS011;25499;53.958;10.970;2023-02-28T12:30:33;3.53;;;1.17;;
39822;SDS011;25499;53.958;10.970;2023-02-28T12:33:06;1.95;;;0.70;;
39822;SDS011;25499;53.958;10.970;2023-02-28T12:35:37;2.05;;;0.52;;
39822;SDS011;25499;53.958;10.970;2023-02-28T12:39:07;1.52;;;0.70;;
39822;SDS011;25499;53.958;10.970;2023-02-28T12:44:46;2.50;;;1.38;;
39822;SDS011;25499;53.958;10.970;2023-02-28T12:47:23;2.13;;;0.80;;
39822;SDS011;25499;53.958;10.970;2023-02-28T12:49:53;1.25;;;0.45;;
39822;SDS011;25499;53.958;10.970;2023-02-28T12:53:09;1.40;;;0.73;;
39822;SDS011;25499;53.958;10.970;2023-02-28T12:55:56;2.53;;;0.85;;
39822;SDS011;25499;53.958;10.970;2023-02-28T13:09:19;1.63;;;0.60;;
39822;SDS011;25499;53.958;10.970;2023-02-28T13:11:46;1.52;;;0.65;;
39822;SDS011;25499;53.958;10.970;2023-02-28T13:19:33;1.42;;;0.35;;
39822;SDS011;25499;53.958;10.970;2023-02-28T13:22:02;0.70;;;0.30;;
39822;SDS011;25499;53.958;10.970;2023-02-28T13:24:39;0.52;;;0.20;;
39822;SDS011;25499;53.958;10.970;2023-02-28T13:29:35;0.93;;;0.40;;
39822;SDS011;25499;53.958;10.970;2023-02-28T13:50:43;0.75;;;0.30;;
39822;SDS011;25499;53.958;10.970;2023-02-28T14:01:27;1.30;;;0.60;;
39822;SDS011;25499;53.958;10.970;2023-02-28T14:07:20;3.03;;;0.50;;
39822;SDS011;25499;53.958;10.970;2023-02-28T14:10:07;1.23;;;0.30;;
39822;SDS011;25499;53.958;10.970;2023-02-28T14:20:36;2.28;;;0.50;;
39822;SDS011;25499;53.958;10.970;2023-02-28T14:28:53;1.27;;;0.43;;
39822;SDS011;25499;53.958;10.970;2023-02-28T14:34:28;2.47;;;0.60;;
39822;SDS011;25499;53.958;10.970;2023-02-28T14:36:58;1.90;;;0.70;;
39822;SDS011;25499;53.958;10.970;2023-02-28T14:39:27;1.58;;;0.57;;
39822;SDS011;25499;53.958;10.970;2023-02-28T14:41:55;2.58;;;0.60;;
39822;SDS011;25499;53.958;10.970;2023-02-28T14:44:28;2.67;;;0.60;;
39822;SDS011;25499;53.958;10.970;2023-02-28T14:46:55;0.85;;;0.60;;
39822;SDS011;25499;53.958;10.970;2023-02-28T14:49:32;1.60;;;0.65;;
39822;SDS011;25499;53.958;10.970;2023-02-28T14:52:22;3.22;;;1.00;;
39822;SDS011;25499;53.958;10.970;2023-02-28T14:54:46;0.70;;;0.57;;
39822;SDS011;25499;53.958;10.970;2023-02-28T14:57:25;1.75;;;0.65;;
39822;SDS011;25499;53.958;10.970;2023-02-28T14:59:59;1.75;;;0.50;;
39822;SDS011;25499;53.958;10.970;2023-02-28T15:05:00;1.70;;;0.70;;
39822;SDS011;25499;53.958;10.970;2023-02-28T15:07:45;2.80;;;0.60;;
39822;SDS011;25499;53.958;10.970;2023-02-28T15:10:20;1.48;;;0.60;;
39822;SDS011;25499;53.958;10.970;2023-02-28T15:21:06;1.65;;;0.80;;
39822;SDS011;25499;53.958;10.970;2023-02-28T15:23:36;2.70;;;1.00;;
39822;SDS011;25499;53.958;10.970;2023-02-28T15:26:04;2.40;;;0.80;;
39822;SDS011;25499;53.958;10.970;2023-02-28T15:28:30;1.13;;;0.80;;
39822;SDS011;25499;53.958;10.970;2023-02-28T15:31:25;1.85;;;0.80;;
39822;SDS011;25499;53.958;10.970;2023-02-28T15:33:54;2.08;;;0.80;;
39822;SDS011;25499;53.958;10.970;2023-02-28T15:36:29;3.33;;;0.80;;
39822;SDS011;25499;53.958;10.970;2023-02-28T15:41:34;0.82;;;0.70;;
39822;SDS011;25499;53.958;10.970;2023-02-28T15:44:15;2.80;;;0.80;;
39822;SDS011;25499;53.958;10.970;2023-02-28T15:49:20;2.33;;;0.77;;
39822;SDS011;25499;53.958;10.970;2023-02-28T15:51:48;3.38;;;0.82;;
39822;SDS011;25499;53.958;10.970;2023-02-28T15:54:24;2.03;;;1.00;;
39822;SDS011;25499;53.958;10.970;2023-02-28T15:56:55;1.58;;;0.95;;
39822;SDS011;25499;53.958;10.970;2023-02-28T15:59:23;3.00;;;1.00;;
39822;SDS011;25499;53.958;10.970;2023-02-28T16:02:11;4.13;;;1.10;;
39822;SDS011;25499;53.958;10.970;2023-02-28T16:07:33;1.67;;;0.90;;
39822;SDS011;25499;53.958;10.970;2023-02-28T16:09:59;3.03;;;1.00;;
39822;SDS011;25499;53.958;10.970;2023-02-28T16:12:26;1.45;;;0.80;;
39822;SDS011;25499;53.958;10.970;2023-02-28T16:15:00;4.95;;;1.00;;
39822;SDS011;25499;53.958;10.970;2023-02-28T16:17:29;1.60;;;0.90;;
39822;SDS011;25499;53.958;10.970;2023-02-28T16:20:00;1.85;;;1.30;;
39822;SDS011;25499;53.958;10.970;2023-02-28T16:22:25;1.90;;;0.88;;
39822;SDS011;25499;53.958;10.970;2023-02-28T16:24:51;2.28;;;0.70;;
39822;SDS011;25499;53.958;10.970;2023-02-28T16:29:54;1.33;;;0.70;;
39822;SDS011;25499;53.958;10.970;2023-02-28T16:32:20;2.17;;;0.90;;
39822;SDS011;25499;53.958;10.970;2023-02-28T16:34:45;1.60;;;0.90;;
39822;SDS011;25499;53.958;10.970;2023-02-28T16:37:15;3.85;;;0.80;;
39822;SDS011;25499;53.958;10.970;2023-02-28T16:39:42;1.90;;;0.73;;
39822;SDS011;25499;53.958;10.970;2023-02-28T16:42:12;2.30;;;1.73;;
39822;SDS011;25499;53.958;10.970;2023-02-28T16:44:44;2.78;;;0.93;;
39822;SDS011;25499;53.958;10.970;2023-02-28T16:47:11;4.40;;;1.00;;
39822;SDS011;25499;53.958;10.970;2023-02-28T16:49:38;2.75;;;0.90;;
39822;SDS011;25499;53.958;10.970;2023-02-28T16:52:07;2.67;;;0.82;;
39822;SDS011;25499;53.958;10.970;2023-02-28T16:54:32;3.45;;;1.08;;
39822;SDS011;25499;53.958;10.970;2023-02-28T16:56:58;2.65;;;1.10;;
39822;SDS011;25499;53.958;10.970;2023-02-28T16:59:24;2.22;;;1.05;;
39822;SDS011;25499;53.958;10.970;2023-02-28T17:01:52;2.92;;;0.90;;
39822;SDS011;25499;53.958;10.970;2023-02-28T17:04:18;3.10;;;1.83;;
39822;SDS011;25499;53.958;10.970;2023-02-28T17:06:44;2.85;;;1.23;;
39822;SDS011;25499;53.958;10.970;2023-02-28T17:09:17;2.63;;;1.30;;
39822;SDS011;25499;53.958;10.970;2023-02-28T17:11:45;8.65;;;1.55;;
39822;SDS011;25499;53.958;10.970;2023-02-28T17:14:12;5.72;;;1.35;;
39822;SDS011;25499;53.958;10.970;2023-02-28T17:16:38;5.57;;;1.75;;
39822;SDS011;25499;53.958;10.970;2023-02-28T17:19:05;3.80;;;1.50;;
39822;SDS011;25499;53.958;10.970;2023-02-28T17:21:32;3.25;;;1.85;;
39822;SDS011;25499;53.958;10.970;2023-02-28T17:23:59;7.13;;;2.90;;
39822;SDS011;25499;53.958;10.970;2023-02-28T17:26:25;4.35;;;2.22;;
39822;SDS011;25499;53.958;10.970;2023-02-28T17:28:52;7.15;;;2.17;;
39822;SDS011;25499;53.958;10.970;2023-02-28T17:31:21;6.50;;;3.60;;
39822;SDS011;25499;53.958;10.970;2023-02-28T17:33:47;3.40;;;2.00;;
39822;SDS011;25499;53.958;10.970;2023-02-28T17:36:13;4.63;;;2.47;;
39822;SDS011;25499;53.958;10.970;2023-02-28T17:38:40;4.47;;;1.75;;
39822;SDS011;25499;53.958;10.970;2023-02-28T17:41:07;3.75;;;1.75;;
39822;SDS011;25499;53.958;10.970;2023-02-28T17:43:35;3.08;;;1.77;;
39822;SDS011;25499;53.958;10.970;2023-02-28T17:46:00;3.20;;;1.73;;
39822;SDS011;25499;53.958;10.970;2023-02-28T17:48:25;5.88;;;2.40;;
39822;SDS011;25499;53.958;10.970;2023-02-28T17:50:51;4.68;;;2.65;;
39822;SDS011;25499;53.958;10.970;2023-02-28T17:53:16;3.95;;;2.35;;
39822;SDS011;25499;53.958;10.970;2023-02-28T17:55:42;4.57;;;2.70;;
39822;SDS011;25499;53.958;10.970;2023-02-28T17:58:09;3.30;;;2.58;;
39822;SDS011;25499;53.958;10.970;2023-02-28T18:00:36;4.72;;;2.47;;
39822;SDS011;25499;53.958;10.970;2023-02-28T18:03:03;6.38;;;2.80;;
39822;SDS011;25499;53.958;10.970;2023-02-28T18:05:28;5.65;;;2.80;;
39822;SDS011;25499;53.958;10.970;2023-02-28T18:07:54;7.45;;;3.65;;
39822;SDS011;25499;53.958;10.970;2023-02-28T18:10:21;6.57;;;2.90;;
39822;SDS011;25499;53.958;10.970;2023-02-28T18:12:49;8.75;;;2.90;;
39822;SDS011;25499;53.958;10.970;2023-02-28T18:15:16;5.25;;;2.67;;
39822;SDS011;25499;53.958;10.970;2023-02-28T18:17:44;6.80;;;3.92;;
39822;SDS011;25499;53.958;10.970;2023-02-28T18:20:10;7.13;;;3.90;;
39822;SDS011;25499;53.958;10.970;2023-02-28T18:22:37;10.52;;;5.28;;
39822;SDS011;25499;53.958;10.970;2023-02-28T18:25:04;14.75;;;7.75;;
39822;SDS011;25499;53.958;10.970;2023-02-28T18:27:30;19.10;;;9.20;;
39822;SDS011;25499;53.958;10.970;2023-02-28T18:29:56;15.40;;;8.13;;
39822;SDS011;25499;53.958;10.970;2023-02-28T18:32:21;13.20;;;6.32;;
39822;SDS011;25499;53.958;10.970;2023-02-28T18:34:47;14.57;;;7.10;;
39822;SDS011;25499;53.958;10.970;2023-02-28T18:37:13;9.07;;;4.60;;
39822;SDS011;25499;53.958;10.970;2023-02-28T18:39:40;8.73;;;3.22;;
39822;SDS011;25499;53.958;10.970;2023-02-28T18:42:05;7.95;;;3.22;;
39822;SDS011;25499;53.958;10.970;2023-02-28T18:44:31;5.90;;;2.30;;
39822;SDS011;25499;53.958;10.970;2023-02-28T18:46:56;6.10;;;2.40;;
39822;SDS011;25499;53.958;10.970;2023-02-28T18:49:21;8.48;;;2.20;;
39822;SDS011;25499;53.958;10.970;2023-02-28T18:51:47;4.53;;;2.10;;
39822;SDS011;25499;53.958;10.970;2023-02-28T18:54:13;2.92;;;2.00;;
39822;SDS011;25499;53.958;10.970;2023-02-28T18:56:39;4.00;;;1.92;;
39822;SDS011;25499;53.958;10.970;2023-02-28T18:59:04;3.65;;;1.70;;
39822;SDS011;25499;53.958;10.970;2023-02-28T19:01:32;3.10;;;1.85;;
39822;SDS011;25499;53.958;10.970;2023-02-28T19:03:59;4.53;;;1.90;;
39822;SDS011;25499;53.958;10.970;2023-02-28T19:06:25;4.32;;;1.88;;
39822;SDS011;25499;53.958;10.970;2023-02-28T19:08:53;3.40;;;1.85;;
39822;SDS011;25499;53.958;10.970;2023-02-28T19:11:21;2.78;;;2.15;;
39822;SDS011;25499;53.958;10.970;2023-02-28T19:13:47;10.32;;;5.80;;
39822;SDS011;25499;53.958;10.970;2023-02-28T19:16:14;11.88;;;6.60;;
39822;SDS011;25499;53.958;10.970;2023-02-28T19:18:41;18.52;;;10.40;;
39822;SDS011;25499;53.958;10.970;2023-02-28T19:21:08;23.50;;;11.90;;
39822;SDS011;25499;53.958;10.970;2023-02-28T19:23:35;22.45;;;11.45;;
39822;SDS011;25499;53.958;10.970;2023-02-28T19:26:05;12.90;;;7.95;;
39822;SDS011;25499;53.958;10.970;2023-02-28T19:28:32;4.93;;;2.67;;
39822;SDS011;25499;53.958;10.970;2023-02-28T19:30:57;18.77;;;7.90;;
39822;SDS011;25499;53.958;10.970;2023-02-28T19:33:23;13.40;;;8.00;;
39822;SDS011;25499;53.958;10.970;2023-02-28T19:35:48;15.63;;;9.55;;
39822;SDS011;25499;53.958;10.970;2023-02-28T19:38:14;15.05;;;7.95;;
39822;SDS011;25499;53.958;10.970;2023-02-28T19:40:40;16.83;;;8.73;;
39822;SDS011;25499;53.958;10.970;2023-02-28T19:43:06;12.23;;;7.00;;
39822;SDS011;25499;53.958;10.970;2023-02-28T19:45:32;13.07;;;6.18;;
39822;SDS011;25499;53.958;10.970;2023-02-28T19:47:59;13.88;;;8.07;;
39822;SDS011;25499;53.958;10.970;2023-02-28T19:50:25;17.83;;;10.43;;
39822;SDS011;25499;53.958;10.970;2023-02-28T19:52:51;6.93;;;4.72;;
39822;SDS011;25499;53.958;10.970;2023-02-28T19:55:17;11.07;;;5.30;;
39822;SDS011;25499;53.958;10.970;2023-02-28T19:57:43;9.30;;;5.10;;
39822;SDS011;25499;53.958;10.970;2023-02-28T20:00:09;7.70;;;3.50;;
39822;SDS011;25499;53.958;10.970;2023-02-28T20:02:39;5.70;;;3.10;;
39822;SDS011;25499;53.958;10.970;2023-02-28T20:05:06;8.25;;;3.20;;
39822;SDS011;25499;53.958;10.970;2023-02-28T20:07:33;5.32;;;2.72;;
39822;SDS011;25499;53.958;10.970;2023-02-28T20:09:58;5.18;;;3.30;;
39822;SDS011;25499;53.958;10.970;2023-02-28T20:12:24;6.70;;;3.08;;
39822;SDS011;25499;53.958;10.970;2023-02-28T20:14:50;4.43;;;2.58;;
39822;SDS011;25499;53.958;10.970;2023-02-28T20:17:17;4.10;;;2.83;;
39822;SDS011;25499;53.958;10.970;2023-02-28T20:19:43;5.53;;;3.60;;
39822;SDS011;25499;53.958;10.970;2023-02-28T20:22:08;5.32;;;3.53;;
39822;SDS011;25499;53.958;10.970;2023-02-28T20:24:34;5.90;;;3.10;;
39822;SDS011;25499;53.958;10.970;2023-02-28T20:27:01;4.97;;;3.30;;
39822;SDS011;25499;53.958;10.970;2023-02-28T20:29:29;5.63;;;3.50;;
39822;SDS011;25499;53.958;10.970;2023-02-28T20:31:54;3.55;;;2.85;;
39822;SDS011;25499;53.958;10.970;2023-02-28T20:34:20;4.97;;;3.13;;
39822;SDS011;25499;53.958;10.970;2023-02-28T20:36:48;4.47;;;3.17;;
39822;SDS011;25499;53.958;10.970;2023-02-28T20:39:14;5.53;;;2.83;;
39822;SDS011;25499;53.958;10.970;2023-02-28T20:41:39;5.07;;;3.28;;
39822;SDS011;25499;53.958;10.970;2023-02-28T20:44:05;4.68;;;2.90;;
39822;SDS011;25499;53.958;10.970;2023-02-28T20:46:31;5.18;;;3.20;;
39822;SDS011;25499;53.958;10.970;2023-02-28T20:48:58;4.82;;;3.05;;
39822;SDS011;25499;53.958;10.970;2023-02-28T20:51:24;6.55;;;3.20;;
39822;SDS011;25499;53.958;10.970;2023-02-28T20:53:50;5.60;;;3.45;;
39822;SDS011;25499;53.958;10.970;2023-02-28T20:56:16;6.50;;;3.38;;
39822;SDS011;25499;53.958;10.970;2023-02-28T20:58:45;5.57;;;3.20;;
39822;SDS011;25499;53.958;10.970;2023-02-28T21:01:16;6.90;;;3.53;;
39822;SDS011;25499;53.958;10.970;2023-02-28T21:03:59;4.90;;;3.38;;
39822;SDS011;25499;53.958;10.970;2023-02-28T21:06:39;8.68;;;3.53;;
39822;SDS011;25499;53.958;10.970;2023-02-28T21:09:08;6.25;;;3.40;;
39822;SDS011;25499;53.958;10.970;2023-02-28T21:11:35;5.18;;;3.17;;
39822;SDS011;25499;53.958;10.970;2023-02-28T21:14:12;7.60;;;3.60;;
39822;SDS011;25499;53.958;10.970;2023-02-28T21:16:40;6.20;;;3.28;;
39822;SDS011;25499;53.958;10.970;2023-02-28T21:19:06;5.65;;;3.55;;
39822;SDS011;25499;53.958;10.970;2023-02-28T21:21:33;6.13;;;3.65;;
39822;SDS011;25499;53.958;10.970;2023-02-28T21:26:27;5.00;;;2.90;;
